sensor_id;sensor_type;location;lat;lon;timestamp;P1;durP1;ratioP1;P2;durP2;ratioP2
23608;SDS011;11982;50.810;4.442;2022-07-09T00:02:04;2.65;;;2.45;;
23608;SDS011;11982;50.810;4.442;2022-07-09T00:04:29;4.75;;;2.28;;
23608;SDS011;11982;50.810;4.442;2022-07-09T00:06:55;4.10;;;2.45;;
23608;SDS011;11982;50.810;4.442;2022-07-09T00:09:21;4.25;;;2.90;;
23608;SDS011;11982;50.810;4.442;2022-07-09T00:11:46;4.80;;;2.35;;
23608;SDS011;11982;50.810;4.442;2022-07-09T00:14:12;2.72;;;2.35;;
23608;SDS011;11982;50.810;4.442;2022-07-09T00:16:38;5.88;;;2.80;;
23608;SDS011;11982;50.810;4.442;2022-07-09T00:19:03;3.20;;;2.70;;
23608;SDS011;11982;50.810;4.442;2022-07-09T00:21:29;3.30;;;2.72;;
23608;SDS011;11982;50.810;4.442;2022-07-09T00:23:55;3.60;;;2.45;;
23608;SDS011;11982;50.810;4.442;2022-07-09T00:26:21;5.47;;;3.20;;
23608;SDS011;11982;50.810;4.442;2022-07-09T00:28:46;3.92;;;2.50;;
23608;SDS011;11982;50.810;4.442;2022-07-09T00:31:12;5.80;;;2.60;;
23608;SDS011;11982;50.810;4.442;2022-07-09T00:33:38;4.45;;;2.83;;
23608;SDS011;11982;50.810;4.442;2022-07-09T00:36:03;5.05;;;2.80;;
23608;SDS011;11982;50.810;4.442;2022-07-09T00:38:29;4.50;;;2.88;;
23608;SDS011;11982;50.810;4.442;2022-07-09T00:40:55;4.57;;;2.90;;
23608;SDS011;11982;50.810;4.442;2022-07-09T00:43:21;7.30;;;2.75;;
23608;SDS011;11982;50.810;4.442;2022-07-09T00:45:48;5.07;;;2.63;;
23608;SDS011;11982;50.810;4.442;2022-07-09T00:48:14;6.32;;;3.13;;
23608;SDS011;11982;50.810;4.442;2022-07-09T00:50:41;3.42;;;2.70;;
23608;SDS011;11982;50.810;4.442;2022-07-09T00:53:09;5.65;;;3.38;;
23608;SDS011;11982;50.810;4.442;2022-07-09T00:55:37;3.40;;;2.60;;
23608;SDS011;11982;50.810;4.442;2022-07-09T00:58:03;4.50;;;3.20;;
23608;SDS011;11982;50.810;4.442;2022-07-09T01:00:30;5.05;;;3.08;;
23608;SDS011;11982;50.810;4.442;2022-07-09T01:02:55;5.32;;;2.97;;
23608;SDS011;11982;50.810;4.442;2022-07-09T01:05:21;5.30;;;2.88;;
23608;SDS011;11982;50.810;4.442;2022-07-09T01:07:47;5.35;;;3.00;;
23608;SDS011;11982;50.810;4.442;2022-07-09T01:10:12;4.90;;;3.28;;
23608;SDS011;11982;50.810;4.442;2022-07-09T01:12:38;3.85;;;3.25;;
23608;SDS011;11982;50.810;4.442;2022-07-09T01:15:04;6.88;;;3.00;;
23608;SDS011;11982;50.810;4.442;2022-07-09T01:17:37;3.53;;;3.20;;
23608;SDS011;11982;50.810;4.442;2022-07-09T01:20:04;6.55;;;3.30;;
23608;SDS011;11982;50.810;4.442;2022-07-09T01:22:30;8.80;;;3.58;;
23608;SDS011;11982;50.810;4.442;2022-07-09T01:24:56;3.80;;;2.90;;
23608;SDS011;11982;50.810;4.442;2022-07-09T01:27:24;6.72;;;3.00;;
23608;SDS011;11982;50.810;4.442;2022-07-09T01:29:49;3.42;;;3.10;;
23608;SDS011;11982;50.810;4.442;2022-07-09T01:32:15;7.80;;;3.53;;
23608;SDS011;11982;50.810;4.442;2022-07-09T01:34:41;7.95;;;3.30;;
23608;SDS011;11982;50.810;4.442;2022-07-09T01:37:07;6.68;;;3.50;;
23608;SDS011;11982;50.810;4.442;2022-07-09T01:39:32;4.63;;;3.58;;
23608;SDS011;11982;50.810;4.442;2022-07-09T01:41:58;4.88;;;2.83;;
23608;SDS011;11982;50.810;4.442;2022-07-09T01:44:24;6.47;;;3.40;;
23608;SDS011;11982;50.810;4.442;2022-07-09T01:46:50;3.50;;;3.17;;
23608;SDS011;11982;50.810;4.442;2022-07-09T01:49:15;5.18;;;3.47;;
23608;SDS011;11982;50.810;4.442;2022-07-09T01:51:41;6.45;;;3.22;;
23608;SDS011;11982;50.810;4.442;2022-07-09T01:54:07;6.28;;;3.20;;
23608;SDS011;11982;50.810;4.442;2022-07-09T01:56:32;5.15;;;3.67;;
23608;SDS011;11982;50.810;4.442;2022-07-09T01:58:59;6.88;;;3.50;;
23608;SDS011;11982;50.810;4.442;2022-07-09T02:01:25;5.07;;;3.35;;
23608;SDS011;11982;50.810;4.442;2022-07-09T02:03:51;6.03;;;3.42;;
23608;SDS011;11982;50.810;4.442;2022-07-09T02:06:16;6.05;;;3.58;;
23608;SDS011;11982;50.810;4.442;2022-07-09T02:08:42;4.75;;;3.80;;
23608;SDS011;11982;50.810;4.442;2022-07-09T02:11:08;3.90;;;3.50;;
23608;SDS011;11982;50.810;4.442;2022-07-09T02:13:33;5.38;;;3.58;;
23608;SDS011;11982;50.810;4.442;2022-07-09T02:16:00;5.20;;;4.00;;
23608;SDS011;11982;50.810;4.442;2022-07-09T02:18:26;8.68;;;3.67;;
23608;SDS011;11982;50.810;4.442;2022-07-09T02:20:52;5.65;;;3.80;;
23608;SDS011;11982;50.810;4.442;2022-07-09T02:23:20;5.50;;;3.95;;
23608;SDS011;11982;50.810;4.442;2022-07-09T02:25:46;5.60;;;4.30;;
23608;SDS011;11982;50.810;4.442;2022-07-09T02:28:12;7.75;;;4.35;;
23608;SDS011;11982;50.810;4.442;2022-07-09T02:30:37;5.63;;;4.20;;
23608;SDS011;11982;50.810;4.442;2022-07-09T02:33:03;5.00;;;3.85;;
23608;SDS011;11982;50.810;4.442;2022-07-09T02:35:29;5.85;;;4.40;;
23608;SDS011;11982;50.810;4.442;2022-07-09T02:37:55;6.70;;;4.25;;
23608;SDS011;11982;50.810;4.442;2022-07-09T02:40:21;6.63;;;4.32;;
23608;SDS011;11982;50.810;4.442;2022-07-09T02:42:47;6.28;;;4.05;;
23608;SDS011;11982;50.810;4.442;2022-07-09T02:45:12;7.18;;;4.72;;
23608;SDS011;11982;50.810;4.442;2022-07-09T02:47:38;5.82;;;4.18;;
23608;SDS011;11982;50.810;4.442;2022-07-09T02:50:04;9.80;;;4.50;;
23608;SDS011;11982;50.810;4.442;2022-07-09T02:52:30;6.53;;;4.10;;
23608;SDS011;11982;50.810;4.442;2022-07-09T02:54:55;7.53;;;4.32;;
23608;SDS011;11982;50.810;4.442;2022-07-09T02:57:21;6.25;;;4.18;;
23608;SDS011;11982;50.810;4.442;2022-07-09T02:59:47;5.45;;;4.47;;
23608;SDS011;11982;50.810;4.442;2022-07-09T03:02:12;7.43;;;3.97;;
23608;SDS011;11982;50.810;4.442;2022-07-09T03:04:38;5.72;;;4.15;;
23608;SDS011;11982;50.810;4.442;2022-07-09T03:07:03;11.65;;;4.97;;
23608;SDS011;11982;50.810;4.442;2022-07-09T03:09:29;5.00;;;4.10;;
23608;SDS011;11982;50.810;4.442;2022-07-09T03:11:55;5.82;;;4.43;;
23608;SDS011;11982;50.810;4.442;2022-07-09T03:14:20;9.18;;;4.55;;
23608;SDS011;11982;50.810;4.442;2022-07-09T03:16:46;7.18;;;4.28;;
23608;SDS011;11982;50.810;4.442;2022-07-09T03:19:12;4.75;;;4.20;;
23608;SDS011;11982;50.810;4.442;2022-07-09T03:21:37;6.93;;;4.90;;
23608;SDS011;11982;50.810;4.442;2022-07-09T03:24:03;7.32;;;4.40;;
23608;SDS011;11982;50.810;4.442;2022-07-09T03:26:29;4.80;;;3.92;;
23608;SDS011;11982;50.810;4.442;2022-07-09T03:28:54;6.18;;;4.00;;
23608;SDS011;11982;50.810;4.442;2022-07-09T03:31:20;7.70;;;4.05;;
23608;SDS011;11982;50.810;4.442;2022-07-09T03:33:46;5.32;;;4.32;;
23608;SDS011;11982;50.810;4.442;2022-07-09T03:36:11;5.80;;;4.53;;
23608;SDS011;11982;50.810;4.442;2022-07-09T03:38:37;5.32;;;4.40;;
23608;SDS011;11982;50.810;4.442;2022-07-09T03:41:03;9.50;;;4.47;;
23608;SDS011;11982;50.810;4.442;2022-07-09T03:43:28;6.70;;;4.45;;
23608;SDS011;11982;50.810;4.442;2022-07-09T03:45:54;5.88;;;4.78;;
23608;SDS011;11982;50.810;4.442;2022-07-09T03:48:19;5.13;;;4.55;;
23608;SDS011;11982;50.810;4.442;2022-07-09T03:50:45;8.00;;;4.43;;
23608;SDS011;11982;50.810;4.442;2022-07-09T03:53:11;8.20;;;4.85;;
23608;SDS011;11982;50.810;4.442;2022-07-09T03:55:36;10.45;;;4.97;;
23608;SDS011;11982;50.810;4.442;2022-07-09T03:58:02;7.20;;;4.63;;
23608;SDS011;11982;50.810;4.442;2022-07-09T04:00:28;5.50;;;4.22;;
23608;SDS011;11982;50.810;4.442;2022-07-09T04:02:53;7.35;;;4.65;;
23608;SDS011;11982;50.810;4.442;2022-07-09T04:05:19;7.20;;;4.50;;
23608;SDS011;11982;50.810;4.442;2022-07-09T04:07:45;9.02;;;4.70;;
23608;SDS011;11982;50.810;4.442;2022-07-09T04:10:11;8.00;;;5.20;;
23608;SDS011;11982;50.810;4.442;2022-07-09T04:12:37;6.15;;;4.70;;
23608;SDS011;11982;50.810;4.442;2022-07-09T04:15:02;6.72;;;5.05;;
23608;SDS011;11982;50.810;4.442;2022-07-09T04:17:28;7.90;;;5.57;;
23608;SDS011;11982;50.810;4.442;2022-07-09T04:19:54;5.97;;;4.50;;
23608;SDS011;11982;50.810;4.442;2022-07-09T04:22:19;6.88;;;4.60;;
23608;SDS011;11982;50.810;4.442;2022-07-09T04:24:45;5.50;;;4.57;;
23608;SDS011;11982;50.810;4.442;2022-07-09T04:27:11;4.22;;;3.83;;
23608;SDS011;11982;50.810;4.442;2022-07-09T04:29:36;5.50;;;4.75;;
23608;SDS011;11982;50.810;4.442;2022-07-09T04:32:02;5.65;;;4.47;;
23608;SDS011;11982;50.810;4.442;2022-07-09T04:34:28;5.78;;;4.53;;
23608;SDS011;11982;50.810;4.442;2022-07-09T04:36:54;8.85;;;4.90;;
23608;SDS011;11982;50.810;4.442;2022-07-09T04:39:20;5.75;;;4.07;;
23608;SDS011;11982;50.810;4.442;2022-07-09T04:41:45;4.75;;;4.25;;
23608;SDS011;11982;50.810;4.442;2022-07-09T04:44:11;5.47;;;4.45;;
23608;SDS011;11982;50.810;4.442;2022-07-09T04:46:40;7.13;;;4.68;;
23608;SDS011;11982;50.810;4.442;2022-07-09T04:49:06;5.80;;;4.65;;
23608;SDS011;11982;50.810;4.442;2022-07-09T04:51:32;6.97;;;4.63;;
23608;SDS011;11982;50.810;4.442;2022-07-09T04:53:58;7.88;;;4.35;;
23608;SDS011;11982;50.810;4.442;2022-07-09T04:56:23;4.90;;;4.45;;
23608;SDS011;11982;50.810;4.442;2022-07-09T04:58:49;11.02;;;5.05;;
23608;SDS011;11982;50.810;4.442;2022-07-09T05:01:21;8.35;;;4.65;;
23608;SDS011;11982;50.810;4.442;2022-07-09T05:03:47;5.35;;;4.25;;
23608;SDS011;11982;50.810;4.442;2022-07-09T05:06:14;6.93;;;3.70;;
23608;SDS011;11982;50.810;4.442;2022-07-09T05:08:43;7.88;;;4.47;;
23608;SDS011;11982;50.810;4.442;2022-07-09T05:11:10;7.47;;;4.00;;
23608;SDS011;11982;50.810;4.442;2022-07-09T05:13:38;10.82;;;4.05;;
23608;SDS011;11982;50.810;4.442;2022-07-09T05:16:07;6.72;;;4.00;;
23608;SDS011;11982;50.810;4.442;2022-07-09T05:18:34;4.28;;;3.88;;
23608;SDS011;11982;50.810;4.442;2022-07-09T05:21:00;8.00;;;3.90;;
23608;SDS011;11982;50.810;4.442;2022-07-09T05:23:26;6.40;;;4.15;;
23608;SDS011;11982;50.810;4.442;2022-07-09T05:25:52;7.10;;;4.40;;
23608;SDS011;11982;50.810;4.442;2022-07-09T05:28:18;5.53;;;3.83;;
23608;SDS011;11982;50.810;4.442;2022-07-09T05:30:44;5.80;;;3.90;;
23608;SDS011;11982;50.810;4.442;2022-07-09T05:33:09;8.45;;;4.10;;
23608;SDS011;11982;50.810;4.442;2022-07-09T05:35:35;7.90;;;4.35;;
23608;SDS011;11982;50.810;4.442;2022-07-09T05:38:01;9.50;;;4.85;;
23608;SDS011;11982;50.810;4.442;2022-07-09T05:40:26;6.15;;;5.07;;
23608;SDS011;11982;50.810;4.442;2022-07-09T05:42:52;6.50;;;5.38;;
23608;SDS011;11982;50.810;4.442;2022-07-09T05:45:18;7.43;;;5.85;;
23608;SDS011;11982;50.810;4.442;2022-07-09T05:47:44;7.72;;;4.93;;
23608;SDS011;11982;50.810;4.442;2022-07-09T05:50:09;10.73;;;7.35;;
23608;SDS011;11982;50.810;4.442;2022-07-09T05:52:35;20.23;;;7.50;;
23608;SDS011;11982;50.810;4.442;2022-07-09T05:55:01;13.32;;;8.98;;
23608;SDS011;11982;50.810;4.442;2022-07-09T05:57:28;11.70;;;7.97;;
23608;SDS011;11982;50.810;4.442;2022-07-09T05:59:54;10.32;;;7.13;;
23608;SDS011;11982;50.810;4.442;2022-07-09T06:02:20;17.52;;;8.05;;
23608;SDS011;11982;50.810;4.442;2022-07-09T06:04:47;16.40;;;8.13;;
23608;SDS011;11982;50.810;4.442;2022-07-09T06:07:12;13.02;;;7.97;;
23608;SDS011;11982;50.810;4.442;2022-07-09T06:09:38;13.27;;;8.20;;
23608;SDS011;11982;50.810;4.442;2022-07-09T06:12:04;10.48;;;6.97;;
23608;SDS011;11982;50.810;4.442;2022-07-09T06:14:29;12.75;;;7.20;;
23608;SDS011;11982;50.810;4.442;2022-07-09T06:16:55;16.23;;;7.60;;
23608;SDS011;11982;50.810;4.442;2022-07-09T06:19:21;10.30;;;7.07;;
23608;SDS011;11982;50.810;4.442;2022-07-09T06:21:47;8.63;;;6.03;;
23608;SDS011;11982;50.810;4.442;2022-07-09T06:24:13;10.15;;;5.95;;
23608;SDS011;11982;50.810;4.442;2022-07-09T06:26:38;9.77;;;5.95;;
23608;SDS011;11982;50.810;4.442;2022-07-09T06:29:04;10.13;;;6.50;;
23608;SDS011;11982;50.810;4.442;2022-07-09T06:31:30;8.80;;;5.60;;
23608;SDS011;11982;50.810;4.442;2022-07-09T06:33:56;7.88;;;5.47;;
23608;SDS011;11982;50.810;4.442;2022-07-09T06:36:23;15.07;;;5.80;;
23608;SDS011;11982;50.810;4.442;2022-07-09T06:38:49;7.22;;;4.90;;
23608;SDS011;11982;50.810;4.442;2022-07-09T06:41:33;13.77;;;5.70;;
23608;SDS011;11982;50.810;4.442;2022-07-09T06:43:58;10.45;;;5.20;;
23608;SDS011;11982;50.810;4.442;2022-07-09T06:46:24;9.13;;;4.72;;
23608;SDS011;11982;50.810;4.442;2022-07-09T06:48:50;9.13;;;4.30;;
23608;SDS011;11982;50.810;4.442;2022-07-09T06:51:15;8.52;;;4.43;;
23608;SDS011;11982;50.810;4.442;2022-07-09T06:53:41;11.23;;;4.28;;
23608;SDS011;11982;50.810;4.442;2022-07-09T06:56:06;9.45;;;4.32;;
23608;SDS011;11982;50.810;4.442;2022-07-09T06:58:32;7.18;;;4.18;;
23608;SDS011;11982;50.810;4.442;2022-07-09T07:00:58;9.05;;;4.50;;
23608;SDS011;11982;50.810;4.442;2022-07-09T07:03:23;11.30;;;4.03;;
23608;SDS011;11982;50.810;4.442;2022-07-09T07:05:49;7.95;;;4.18;;
23608;SDS011;11982;50.810;4.442;2022-07-09T07:08:14;6.35;;;3.92;;
23608;SDS011;11982;50.810;4.442;2022-07-09T07:10:40;10.05;;;3.65;;
23608;SDS011;11982;50.810;4.442;2022-07-09T07:13:06;7.55;;;3.60;;
23608;SDS011;11982;50.810;4.442;2022-07-09T07:15:31;7.88;;;3.53;;
23608;SDS011;11982;50.810;4.442;2022-07-09T07:17:57;5.50;;;3.55;;
23608;SDS011;11982;50.810;4.442;2022-07-09T07:20:22;7.82;;;3.60;;
23608;SDS011;11982;50.810;4.442;2022-07-09T07:22:50;7.10;;;3.70;;
23608;SDS011;11982;50.810;4.442;2022-07-09T07:25:16;7.97;;;3.58;;
23608;SDS011;11982;50.810;4.442;2022-07-09T07:27:41;6.80;;;3.35;;
23608;SDS011;11982;50.810;4.442;2022-07-09T07:30:07;6.07;;;3.17;;
23608;SDS011;11982;50.810;4.442;2022-07-09T07:32:33;6.20;;;3.70;;
23608;SDS011;11982;50.810;4.442;2022-07-09T07:34:59;7.90;;;3.05;;
23608;SDS011;11982;50.810;4.442;2022-07-09T07:37:24;6.65;;;2.90;;
23608;SDS011;11982;50.810;4.442;2022-07-09T07:39:50;7.88;;;3.63;;
23608;SDS011;11982;50.810;4.442;2022-07-09T07:42:15;6.93;;;3.88;;
23608;SDS011;11982;50.810;4.442;2022-07-09T07:44:41;9.05;;;3.45;;
23608;SDS011;11982;50.810;4.442;2022-07-09T07:47:07;9.07;;;3.67;;
23608;SDS011;11982;50.810;4.442;2022-07-09T07:49:33;9.32;;;4.15;;
23608;SDS011;11982;50.810;4.442;2022-07-09T07:51:59;5.47;;;3.65;;
23608;SDS011;11982;50.810;4.442;2022-07-09T07:54:24;7.15;;;3.30;;
23608;SDS011;11982;50.810;4.442;2022-07-09T07:56:50;11.10;;;3.85;;
23608;SDS011;11982;50.810;4.442;2022-07-09T07:59:16;9.15;;;3.88;;
23608;SDS011;11982;50.810;4.442;2022-07-09T08:01:42;11.02;;;4.38;;
23608;SDS011;11982;50.810;4.442;2022-07-09T08:04:08;9.13;;;5.10;;
23608;SDS011;11982;50.810;4.442;2022-07-09T08:06:34;14.85;;;6.38;;
23608;SDS011;11982;50.810;4.442;2022-07-09T08:09:00;8.32;;;5.15;;
23608;SDS011;11982;50.810;4.442;2022-07-09T08:11:27;12.32;;;6.50;;
23608;SDS011;11982;50.810;4.442;2022-07-09T08:13:53;13.93;;;5.80;;
23608;SDS011;11982;50.810;4.442;2022-07-09T08:16:19;9.23;;;5.88;;
23608;SDS011;11982;50.810;4.442;2022-07-09T08:18:45;12.55;;;6.10;;
23608;SDS011;11982;50.810;4.442;2022-07-09T08:21:11;11.40;;;6.30;;
23608;SDS011;11982;50.810;4.442;2022-07-09T08:23:36;12.48;;;6.35;;
23608;SDS011;11982;50.810;4.442;2022-07-09T08:26:22;11.15;;;5.97;;
23608;SDS011;11982;50.810;4.442;2022-07-09T08:28:48;7.10;;;5.82;;
23608;SDS011;11982;50.810;4.442;2022-07-09T08:31:15;7.82;;;6.75;;
23608;SDS011;11982;50.810;4.442;2022-07-09T08:33:41;13.10;;;6.47;;
23608;SDS011;11982;50.810;4.442;2022-07-09T08:36:06;11.98;;;6.35;;
23608;SDS011;11982;50.810;4.442;2022-07-09T08:38:32;9.80;;;6.05;;
23608;SDS011;11982;50.810;4.442;2022-07-09T08:40:59;12.05;;;5.72;;
23608;SDS011;11982;50.810;4.442;2022-07-09T08:43:25;11.02;;;5.57;;
23608;SDS011;11982;50.810;4.442;2022-07-09T08:45:54;8.52;;;4.85;;
23608;SDS011;11982;50.810;4.442;2022-07-09T08:48:21;8.90;;;5.18;;
23608;SDS011;11982;50.810;4.442;2022-07-09T08:50:48;11.00;;;4.63;;
23608;SDS011;11982;50.810;4.442;2022-07-09T08:53:16;9.65;;;4.93;;
23608;SDS011;11982;50.810;4.442;2022-07-09T08:55:42;8.80;;;5.53;;
23608;SDS011;11982;50.810;4.442;2022-07-09T08:58:09;11.30;;;5.40;;
23608;SDS011;11982;50.810;4.442;2022-07-09T09:00:38;6.70;;;5.35;;
23608;SDS011;11982;50.810;4.442;2022-07-09T09:03:05;11.65;;;5.57;;
23608;SDS011;11982;50.810;4.442;2022-07-09T09:05:31;10.70;;;5.65;;
23608;SDS011;11982;50.810;4.442;2022-07-09T09:07:57;9.80;;;5.88;;
23608;SDS011;11982;50.810;4.442;2022-07-09T09:10:26;9.05;;;6.80;;
23608;SDS011;11982;50.810;4.442;2022-07-09T09:12:58;13.48;;;6.53;;
23608;SDS011;11982;50.810;4.442;2022-07-09T09:15:26;10.18;;;6.50;;
23608;SDS011;11982;50.810;4.442;2022-07-09T09:17:52;8.13;;;6.32;;
23608;SDS011;11982;50.810;4.442;2022-07-09T09:20:18;12.00;;;6.57;;
23608;SDS011;11982;50.810;4.442;2022-07-09T09:22:48;12.43;;;7.03;;
23608;SDS011;11982;50.810;4.442;2022-07-09T09:25:27;11.07;;;6.57;;
23608;SDS011;11982;50.810;4.442;2022-07-09T09:27:54;15.25;;;6.93;;
23608;SDS011;11982;50.810;4.442;2022-07-09T09:30:21;13.45;;;6.93;;
23608;SDS011;11982;50.810;4.442;2022-07-09T09:32:54;11.23;;;5.65;;
23608;SDS011;11982;50.810;4.442;2022-07-09T09:35:21;10.63;;;5.90;;
23608;SDS011;11982;50.810;4.442;2022-07-09T09:37:47;9.02;;;6.70;;
23608;SDS011;11982;50.810;4.442;2022-07-09T09:40:13;15.75;;;7.18;;
23608;SDS011;11982;50.810;4.442;2022-07-09T09:42:40;8.55;;;5.60;;
23608;SDS011;11982;50.810;4.442;2022-07-09T09:45:09;10.30;;;6.30;;
23608;SDS011;11982;50.810;4.442;2022-07-09T09:47:39;9.65;;;5.97;;
23608;SDS011;11982;50.810;4.442;2022-07-09T09:50:04;7.72;;;6.07;;
23608;SDS011;11982;50.810;4.442;2022-07-09T09:52:33;14.73;;;7.00;;
23608;SDS011;11982;50.810;4.442;2022-07-09T09:55:01;11.65;;;7.55;;
23608;SDS011;11982;50.810;4.442;2022-07-09T09:57:28;13.10;;;7.25;;
23608;SDS011;11982;50.810;4.442;2022-07-09T09:59:55;12.40;;;7.63;;
23608;SDS011;11982;50.810;4.442;2022-07-09T10:02:22;13.52;;;8.90;;
23608;SDS011;11982;50.810;4.442;2022-07-09T10:04:50;14.27;;;10.73;;
23608;SDS011;11982;50.810;4.442;2022-07-09T10:07:15;14.77;;;11.18;;
23608;SDS011;11982;50.810;4.442;2022-07-09T10:09:51;14.88;;;9.98;;
23608;SDS011;11982;50.810;4.442;2022-07-09T10:12:29;18.17;;;12.43;;
23608;SDS011;11982;50.810;4.442;2022-07-09T10:14:57;15.23;;;12.88;;
23608;SDS011;11982;50.810;4.442;2022-07-09T10:17:24;22.55;;;16.55;;
23608;SDS011;11982;50.810;4.442;2022-07-09T10:22:18;19.98;;;14.93;;
23608;SDS011;11982;50.810;4.442;2022-07-09T10:24:45;25.35;;;20.08;;
23608;SDS011;11982;50.810;4.442;2022-07-09T10:27:11;24.90;;;21.05;;
23608;SDS011;11982;50.810;4.442;2022-07-09T10:32:31;34.88;;;27.05;;
23608;SDS011;11982;50.810;4.442;2022-07-09T10:35:03;31.10;;;26.15;;
23608;SDS011;11982;50.810;4.442;2022-07-09T10:38:03;30.33;;;26.17;;
23608;SDS011;11982;50.810;4.442;2022-07-09T10:40:22;32.58;;;26.75;;
23608;SDS011;11982;50.810;4.442;2022-07-09T10:43:02;37.08;;;26.52;;
23608;SDS011;11982;50.810;4.442;2022-07-09T10:45:29;35.58;;;27.92;;
23608;SDS011;11982;50.810;4.442;2022-07-09T10:48:11;33.15;;;24.13;;
23608;SDS011;11982;50.810;4.442;2022-07-09T10:50:41;32.65;;;25.67;;
23608;SDS011;11982;50.810;4.442;2022-07-09T10:53:08;29.73;;;25.42;;
23608;SDS011;11982;50.810;4.442;2022-07-09T10:55:34;34.25;;;30.30;;
23608;SDS011;11982;50.810;4.442;2022-07-09T10:58:00;30.10;;;24.95;;
23608;SDS011;11982;50.810;4.442;2022-07-09T11:00:32;25.30;;;19.60;;
23608;SDS011;11982;50.810;4.442;2022-07-09T11:05:24;25.88;;;19.17;;
23608;SDS011;11982;50.810;4.442;2022-07-09T11:08:09;23.83;;;21.27;;
23608;SDS011;11982;50.810;4.442;2022-07-09T11:10:36;22.13;;;18.40;;
23608;SDS011;11982;50.810;4.442;2022-07-09T11:13:03;22.83;;;15.68;;
23608;SDS011;11982;50.810;4.442;2022-07-09T11:15:32;18.38;;;13.40;;
23608;SDS011;11982;50.810;4.442;2022-07-09T11:17:59;21.92;;;16.63;;
23608;SDS011;11982;50.810;4.442;2022-07-09T11:20:25;22.23;;;16.30;;
23608;SDS011;11982;50.810;4.442;2022-07-09T11:22:52;18.02;;;13.63;;
23608;SDS011;11982;50.810;4.442;2022-07-09T11:25:21;15.50;;;12.82;;
23608;SDS011;11982;50.810;4.442;2022-07-09T11:27:49;15.75;;;10.88;;
23608;SDS011;11982;50.810;4.442;2022-07-09T11:30:15;14.73;;;10.10;;
23608;SDS011;11982;50.810;4.442;2022-07-09T11:32:43;12.35;;;7.38;;
23608;SDS011;11982;50.810;4.442;2022-07-09T11:35:10;9.80;;;6.05;;
23608;SDS011;11982;50.810;4.442;2022-07-09T11:37:36;7.45;;;4.55;;
23608;SDS011;11982;50.810;4.442;2022-07-09T11:40:09;7.72;;;4.22;;
23608;SDS011;11982;50.810;4.442;2022-07-09T11:42:42;7.13;;;3.58;;
23608;SDS011;11982;50.810;4.442;2022-07-09T11:45:07;5.00;;;2.60;;
23608;SDS011;11982;50.810;4.442;2022-07-09T11:47:38;3.45;;;2.63;;
23608;SDS011;11982;50.810;4.442;2022-07-09T11:50:08;3.20;;;2.58;;
23608;SDS011;11982;50.810;4.442;2022-07-09T11:52:35;4.72;;;2.35;;
23608;SDS011;11982;50.810;4.442;2022-07-09T11:55:07;3.58;;;2.38;;
23608;SDS011;11982;50.810;4.442;2022-07-09T11:57:34;3.63;;;2.30;;
23608;SDS011;11982;50.810;4.442;2022-07-09T12:00:02;4.82;;;2.58;;
23608;SDS011;11982;50.810;4.442;2022-07-09T12:02:30;8.93;;;1.92;;
23608;SDS011;11982;50.810;4.442;2022-07-09T12:05:02;4.22;;;2.47;;
23608;SDS011;11982;50.810;4.442;2022-07-09T12:07:29;6.57;;;2.85;;
23608;SDS011;11982;50.810;4.442;2022-07-09T12:12:25;3.80;;;2.28;;
23608;SDS011;11982;50.810;4.442;2022-07-09T12:14:51;3.55;;;2.15;;
23608;SDS011;11982;50.810;4.442;2022-07-09T12:17:17;2.35;;;2.15;;
23608;SDS011;11982;50.810;4.442;2022-07-09T12:19:44;4.80;;;1.95;;
23608;SDS011;11982;50.810;4.442;2022-07-09T12:22:10;2.20;;;1.70;;
23608;SDS011;11982;50.810;4.442;2022-07-09T12:24:36;3.58;;;1.55;;
23608;SDS011;11982;50.810;4.442;2022-07-09T12:27:02;3.20;;;1.92;;
23608;SDS011;11982;50.810;4.442;2022-07-09T12:29:28;2.85;;;1.52;;
23608;SDS011;11982;50.810;4.442;2022-07-09T12:31:53;3.60;;;1.33;;
23608;SDS011;11982;50.810;4.442;2022-07-09T12:34:19;4.80;;;1.55;;
23608;SDS011;11982;50.810;4.442;2022-07-09T12:36:44;2.15;;;1.65;;
23608;SDS011;11982;50.810;4.442;2022-07-09T12:39:10;4.45;;;2.08;;
23608;SDS011;11982;50.810;4.442;2022-07-09T12:41:36;5.05;;;1.60;;
23608;SDS011;11982;50.810;4.442;2022-07-09T12:44:01;4.25;;;1.60;;
23608;SDS011;11982;50.810;4.442;2022-07-09T12:46:27;4.95;;;2.00;;
23608;SDS011;11982;50.810;4.442;2022-07-09T12:48:52;4.45;;;2.17;;
23608;SDS011;11982;50.810;4.442;2022-07-09T12:51:18;2.80;;;2.22;;
23608;SDS011;11982;50.810;4.442;2022-07-09T12:53:44;5.97;;;2.92;;
23608;SDS011;11982;50.810;4.442;2022-07-09T12:56:09;3.10;;;1.98;;
23608;SDS011;11982;50.810;4.442;2022-07-09T12:58:35;4.07;;;1.90;;
23608;SDS011;11982;50.810;4.442;2022-07-09T13:01:01;3.63;;;2.30;;
23608;SDS011;11982;50.810;4.442;2022-07-09T13:03:27;3.15;;;2.88;;
23608;SDS011;11982;50.810;4.442;2022-07-09T13:05:52;8.55;;;3.65;;
23608;SDS011;11982;50.810;4.442;2022-07-09T13:08:18;4.32;;;2.47;;
23608;SDS011;11982;50.810;4.442;2022-07-09T13:10:44;2.50;;;1.80;;
23608;SDS011;11982;50.810;4.442;2022-07-09T13:13:09;3.22;;;1.40;;
23608;SDS011;11982;50.810;4.442;2022-07-09T13:15:35;1.40;;;1.25;;
23608;SDS011;11982;50.810;4.442;2022-07-09T13:18:01;4.82;;;1.48;;
23608;SDS011;11982;50.810;4.442;2022-07-09T13:20:27;3.63;;;1.40;;
23608;SDS011;11982;50.810;4.442;2022-07-09T13:22:52;1.75;;;1.15;;
23608;SDS011;11982;50.810;4.442;2022-07-09T13:25:18;1.45;;;1.20;;
23608;SDS011;11982;50.810;4.442;2022-07-09T13:27:44;3.85;;;1.55;;
23608;SDS011;11982;50.810;4.442;2022-07-09T13:30:09;1.92;;;1.02;;
23608;SDS011;11982;50.810;4.442;2022-07-09T13:32:36;3.25;;;1.50;;
23608;SDS011;11982;50.810;4.442;2022-07-09T13:35:01;2.22;;;1.50;;
23608;SDS011;11982;50.810;4.442;2022-07-09T13:37:27;3.55;;;1.80;;
23608;SDS011;11982;50.810;4.442;2022-07-09T13:39:55;4.15;;;1.58;;
23608;SDS011;11982;50.810;4.442;2022-07-09T13:42:21;2.83;;;1.25;;
23608;SDS011;11982;50.810;4.442;2022-07-09T13:44:47;3.58;;;1.23;;
23608;SDS011;11982;50.810;4.442;2022-07-09T13:47:13;2.22;;;1.38;;
23608;SDS011;11982;50.810;4.442;2022-07-09T13:49:39;3.28;;;1.42;;
23608;SDS011;11982;50.810;4.442;2022-07-09T13:52:05;7.40;;;1.45;;
23608;SDS011;11982;50.810;4.442;2022-07-09T13:54:31;3.58;;;1.70;;
23608;SDS011;11982;50.810;4.442;2022-07-09T13:56:56;3.28;;;1.50;;
23608;SDS011;11982;50.810;4.442;2022-07-09T13:59:22;3.70;;;1.45;;
23608;SDS011;11982;50.810;4.442;2022-07-09T14:01:47;2.80;;;1.45;;
23608;SDS011;11982;50.810;4.442;2022-07-09T14:04:13;2.40;;;1.50;;
23608;SDS011;11982;50.810;4.442;2022-07-09T14:06:39;5.07;;;1.38;;
23608;SDS011;11982;50.810;4.442;2022-07-09T14:09:04;5.30;;;1.40;;
23608;SDS011;11982;50.810;4.442;2022-07-09T14:11:30;2.92;;;1.40;;
23608;SDS011;11982;50.810;4.442;2022-07-09T14:13:56;2.92;;;1.35;;
23608;SDS011;11982;50.810;4.442;2022-07-09T14:16:22;4.18;;;1.35;;
23608;SDS011;11982;50.810;4.442;2022-07-09T14:18:48;2.80;;;1.50;;
23608;SDS011;11982;50.810;4.442;2022-07-09T14:21:14;2.67;;;1.20;;
23608;SDS011;11982;50.810;4.442;2022-07-09T14:23:39;5.28;;;1.20;;
23608;SDS011;11982;50.810;4.442;2022-07-09T14:26:06;2.63;;;1.48;;
23608;SDS011;11982;50.810;4.442;2022-07-09T14:28:32;1.95;;;1.33;;
23608;SDS011;11982;50.810;4.442;2022-07-09T14:30:57;3.45;;;1.13;;
23608;SDS011;11982;50.810;4.442;2022-07-09T14:33:24;2.35;;;0.90;;
23608;SDS011;11982;50.810;4.442;2022-07-09T14:35:49;4.70;;;1.77;;
23608;SDS011;11982;50.810;4.442;2022-07-09T14:38:15;3.67;;;1.33;;
23608;SDS011;11982;50.810;4.442;2022-07-09T14:40:41;3.45;;;1.38;;
23608;SDS011;11982;50.810;4.442;2022-07-09T14:43:07;4.15;;;1.17;;
23608;SDS011;11982;50.810;4.442;2022-07-09T14:45:32;2.40;;;0.90;;
23608;SDS011;11982;50.810;4.442;2022-07-09T14:47:58;5.90;;;1.20;;
23608;SDS011;11982;50.810;4.442;2022-07-09T14:50:23;4.15;;;1.33;;